Portada
METAR-TAF:

METAR-TAF

Aeropuertos :

Aeropuerto de Bornholm

Rønne, Dinamarca

latitud: 55-04N, longitud: 014-45E, altitud: 16 m

Observación

El informe se hizo hace 13 minutos, a las 00:50 UTC
Viento 13 kt del suroeste
Temperatura 6°C
Humedad 87%
Presión 1008 hPa
Visibilidad 10 km o más

METAR: EKRN 190050Z AUTO 23013KT 9999 OVC020/// 06/04 Q1008

Hora: 02:03 (01:03 UTC)

Pronóstico

El informe se hizo hace 7 horas y 38 minutos, a las 17:25 UTC
Pronóstico válido del 18 a las 18 UTC al 18 a las 23 UTC
Viento 20 kt del oeste-suroeste
Visibilidad 10 km o más
Cielo nuboso a una altura de 2500 ft
Temporalmente
del 18 a las 18 UTC al 18 a las 23 UTC
Viento 20 kt del oeste-suroeste con ráfagas de 35 kt
Nubes dispersas a una altura de 2000 ft, Cumulonimbus.
chaparrones de lluvia

TAF: EKRN 181725Z 1818/1823 25020KT 9999 BKN025 TEMPO 1818/1823 25020G35KT SHRA SCT020CB

Observaciones y pronósticos meteorológicos de más de 4000 aeropuertos (mensajes METAR y TAF).

Los puntos amarillos y rojos representan las estaciones disponibles.

Ponga el ratón en el punto deseado para ver el nombre de la estación.

Haga clic para ver las observaciones y los pronósticos meteorológicos.

Para cambiar el mapa : haga clic en los botones verdes con una cruz de color negro para hacer un zoom, en el botón verde con un guión para alejar o en las flechas verdes para mapas adyacentes.


METAR-TAF: